Time;durP1;ratioP1;P1;durP2;ratioP2;P2;SDS_P1;SDS_P2;PMS_P1;PMS_P2;Temp;Humidity;BMP_temperature;BMP_pressure;BME280_temperature;BME280_humidity;BME280_pressure;Samples;Min_cycle;Max_cycle;Signal;HPM_P1;HPM_P2
2021/01/18 00:01:34;;;;;;;151.48;66.72;;;;;;;;;;5094723;28;20016;-71
2021/01/18 00:04:03;;;;;;;111.65;49.25;;;;;;;;;;5094628;28;20016;-73
2021/01/18 00:06:30;;;;;;;103.90;48.40;;;;;;;;;;5094349;28;20016;-72
2021/01/18 00:08:56;;;;;;;103.03;48.03;;;;;;;;;;5096008;28;20051;-72
2021/01/18 00:11:23;;;;;;;83.82;42.22;;;;;;;;;;5094215;28;20441;-71
2021/01/18 00:13:50;;;;;;;99.13;47.65;;;;;;;;;;5094220;28;20027;-71
2021/01/18 00:16:20;;;;;;;101.32;46.75;;;;;;;;;;5096813;28;20112;-72
2021/01/18 00:18:46;;;;;;;82.25;38.83;;;;;;;;;;5095685;28;20028;-72
2021/01/18 00:21:14;;;;;;;91.72;43.70;;;;;;;;;;5095355;28;20525;-71
2021/01/18 00:23:40;;;;;;;91.05;41.47;;;;;;;;;;5095732;28;20020;-71
2021/01/18 00:26:06;;;;;;;94.45;40.47;;;;;;;;;;5095006;28;20110;-72
2021/01/18 00:28:33;;;;;;;95.72;43.97;;;;;;;;;;5095236;28;20023;-71
2021/01/18 00:31:00;;;;;;;95.05;45.88;;;;;;;;;;5095103;28;20040;-71
2021/01/18 00:33:26;;;;;;;99.38;45.75;;;;;;;;;;5095158;28;20081;-72
2021/01/18 00:35:52;;;;;;;96.65;47.10;;;;;;;;;;5095366;28;20023;-72
2021/01/18 00:38:18;;;;;;;108.18;49.70;;;;;;;;;;5095289;28;20069;-73
2021/01/18 00:40:44;;;;;;;111.10;51.67;;;;;;;;;;5094732;28;20034;-71
2021/01/18 00:43:10;;;;;;;104.70;49.30;;;;;;;;;;5095288;28;20181;-71
2021/01/18 00:45:36;;;;;;;106.22;51.45;;;;;;;;;;5095229;28;20023;-71
2021/01/18 00:48:03;;;;;;;113.18;53.42;;;;;;;;;;5094511;28;20020;-71
2021/01/18 00:50:30;;;;;;;129.60;56.67;;;;;;;;;;5095022;28;20481;-71
2021/01/18 00:52:56;;;;;;;133.85;58.30;;;;;;;;;;5096613;28;20017;-73
2021/01/18 00:55:23;;;;;;;150.95;61.30;;;;;;;;;;5096023;28;20016;-72
2021/01/18 00:57:50;;;;;;;143.60;61.70;;;;;;;;;;5094619;28;20016;-72
2021/01/18 01:00:17;;;;;;;114.82;51.80;;;;;;;;;;5094574;28;20107;-71
2021/01/18 01:02:44;;;;;;;91.40;46.92;;;;;;;;;;5094305;28;20024;-71
2021/01/18 01:05:12;;;;;;;95.00;45.10;;;;;;;;;;5096243;28;20501;-73
2021/01/18 01:07:39;;;;;;;88.85;43.42;;;;;;;;;;5094820;28;20020;-70
2021/01/18 01:10:06;;;;;;;93.63;45.67;;;;;;;;;;5095733;28;20024;-70
2021/01/18 01:12:32;;;;;;;99.03;46.73;;;;;;;;;;5095842;28;20093;-69
2021/01/18 01:14:58;;;;;;;79.20;37.28;;;;;;;;;;5094183;28;20268;-71
2021/01/18 01:17:24;;;;;;;77.20;39.83;;;;;;;;;;5094601;28;20076;-72
2021/01/18 01:19:51;;;;;;;77.30;38.08;;;;;;;;;;5094607;28;20111;-70
2021/01/18 01:22:17;;;;;;;85.82;43.05;;;;;;;;;;5094069;28;20051;-71
2021/01/18 01:24:43;;;;;;;82.55;39.22;;;;;;;;;;5094495;28;20514;-72
2021/01/18 01:27:09;;;;;;;83.32;39.60;;;;;;;;;;5094189;28;20024;-72
2021/01/18 01:29:35;;;;;;;82.18;40.35;;;;;;;;;;5094040;28;20109;-71
2021/01/18 01:32:01;;;;;;;78.22;37.70;;;;;;;;;;5093697;28;20079;-73
2021/01/18 01:34:27;;;;;;;81.53;40.28;;;;;;;;;;5094098;28;20460;-70
2021/01/18 01:36:53;;;;;;;80.68;37.83;;;;;;;;;;5093994;28;20062;-71
2021/01/18 01:39:19;;;;;;;76.78;40.22;;;;;;;;;;5094213;28;20024;-70
2021/01/18 01:41:45;;;;;;;82.40;40.80;;;;;;;;;;5094004;28;20052;-71
2021/01/18 01:44:11;;;;;;;74.15;37.65;;;;;;;;;;5093616;28;20406;-72
2021/01/18 01:46:39;;;;;;;74.03;39.28;;;;;;;;;;5094086;28;20122;-72
2021/01/18 01:49:05;;;;;;;73.65;37.13;;;;;;;;;;5093943;28;20097;-72
2021/01/18 01:51:31;;;;;;;74.15;37.67;;;;;;;;;;5093460;28;20115;-72
2021/01/18 01:53:57;;;;;;;76.55;39.72;;;;;;;;;;5093943;28;20024;-72
2021/01/18 01:56:23;;;;;;;65.20;34.65;;;;;;;;;;5095506;28;20504;-72
2021/01/18 01:58:56;;;;;;;77.22;37.05;;;;;;;;;;5094823;28;20445;-72
2021/01/18 02:01:22;;;;;;;77.30;38.20;;;;;;;;;;5093159;28;20024;-72
2021/01/18 02:03:51;;;;;;;81.60;38.70;;;;;;;;;;5094029;28;20464;-74
2021/01/18 02:06:19;;;;;;;72.22;36.45;;;;;;;;;;5094766;28;20044;-72
2021/01/18 02:08:45;;;;;;;68.72;36.60;;;;;;;;;;5094875;28;20080;-73
2021/01/18 02:11:12;;;;;;;91.85;42.03;;;;;;;;;;5093038;28;20043;-73
2021/01/18 02:13:56;;;;;;;80.53;38.85;;;;;;;;;;5094661;28;20075;-74
2021/01/18 02:16:22;;;;;;;83.28;40.72;;;;;;;;;;5093298;28;20016;-72
2021/01/18 02:19:02;;;;;;;93.28;45.92;;;;;;;;;;5094440;28;20099;-73
2021/01/18 02:21:47;;;;;;;88.50;41.95;;;;;;;;;;5093414;28;20027;-73
2021/01/18 02:24:32;;;;;;;103.18;47.30;;;;;;;;;;5094935;28;20016;-72
2021/01/18 02:27:13;;;;;;;127.50;60.53;;;;;;;;;;5094096;28;20016;-72
2021/01/18 02:29:54;;;;;;;102.00;45.42;;;;;;;;;;5094321;28;20024;-72
2021/01/18 02:32:23;;;;;;;99.30;45.03;;;;;;;;;;5093766;28;20358;-71
2021/01/18 02:35:01;;;;;;;77.47;34.85;;;;;;;;;;5094985;28;20353;-74
2021/01/18 02:37:37;;;;;;;78.78;35.83;;;;;;;;;;5093495;28;20019;-71
2021/01/18 02:40:09;;;;;;;77.63;38.75;;;;;;;;;;5092819;28;20020;-71
2021/01/18 02:42:56;;;;;;;92.00;38.63;;;;;;;;;;5094379;28;20441;-72
2021/01/18 02:45:22;;;;;;;75.30;30.90;;;;;;;;;;5092605;28;20047;-71
2021/01/18 02:47:49;;;;;;;65.15;31.58;;;;;;;;;;5093706;28;20255;-71
2021/01/18 02:50:16;;;;;;;60.63;28.35;;;;;;;;;;5094210;28;20024;-72
2021/01/18 02:52:43;;;;;;;56.28;26.45;;;;;;;;;;5093947;28;20020;-71
2021/01/18 02:55:09;;;;;;;56.88;28.27;;;;;;;;;;5092634;28;20463;-73
2021/01/18 02:57:39;;;;;;;52.33;25.80;;;;;;;;;;5092903;28;20024;-75
2021/01/18 03:00:07;;;;;;;48.35;25.95;;;;;;;;;;5092285;28;20257;-74
2021/01/18 03:02:36;;;;;;;65.80;27.85;;;;;;;;;;5092821;28;20020;-73
2021/01/18 03:05:03;;;;;;;76.35;31.65;;;;;;;;;;5093005;28;20016;-74
2021/01/18 03:07:32;;;;;;;80.30;33.13;;;;;;;;;;5093819;28;20012;-75
2021/01/18 03:10:09;;;;;;;62.03;27.48;;;;;;;;;;5092666;28;20031;-74
2021/01/18 03:12:41;;;;;;;50.78;26.15;;;;;;;;;;5093286;28;20066;-74
2021/01/18 03:15:11;;;;;;;61.53;28.55;;;;;;;;;;5092189;28;20142;-76
2021/01/18 03:17:38;;;;;;;57.95;25.55;;;;;;;;;;5092745;28;20103;-75
2021/01/18 03:20:05;;;;;;;50.78;24.42;;;;;;;;;;5092708;28;20108;-74
2021/01/18 03:22:31;;;;;;;47.15;23.08;;;;;;;;;;5092166;28;20611;-76
2021/01/18 03:25:04;;;;;;;53.35;23.92;;;;;;;;;;5095011;28;20020;-70
2021/01/18 03:27:44;;;;;;;43.67;21.73;;;;;;;;;;5098060;28;20024;-71
2021/01/18 03:30:10;;;;;;;49.90;22.95;;;;;;;;;;5113005;28;20028;-71
2021/01/18 03:32:37;;;;;;;49.88;22.98;;;;;;;;;;5096685;28;20020;-72
2021/01/18 03:35:03;;;;;;;49.53;21.45;;;;;;;;;;5096316;28;20020;-71
2021/01/18 03:37:29;;;;;;;45.10;20.35;;;;;;;;;;5096555;28;20020;-73
2021/01/18 03:39:55;;;;;;;45.75;21.50;;;;;;;;;;5097438;28;20024;-72
2021/01/18 03:42:21;;;;;;;50.80;25.67;;;;;;;;;;5096861;28;20047;-72
2021/01/18 03:44:47;;;;;;;55.70;24.35;;;;;;;;;;5096583;28;20024;-72
2021/01/18 03:47:13;;;;;;;62.35;30.08;;;;;;;;;;5097560;28;20115;-74
2021/01/18 03:49:40;;;;;;;61.78;32.05;;;;;;;;;;5096749;28;20069;-72
2021/01/18 03:52:06;;;;;;;63.80;31.67;;;;;;;;;;5096488;28;20024;-73
2021/01/18 03:54:32;;;;;;;58.42;28.45;;;;;;;;;;5096234;28;20031;-73
2021/01/18 03:56:58;;;;;;;63.45;30.50;;;;;;;;;;5095928;28;20182;-73
2021/01/18 03:59:24;;;;;;;63.08;30.55;;;;;;;;;;5097441;28;20020;-72
2021/01/18 04:01:50;;;;;;;58.72;27.58;;;;;;;;;;5095865;28;20028;-69
2021/01/18 04:04:16;;;;;;;59.67;25.85;;;;;;;;;;5097001;28;20334;-72
2021/01/18 04:06:42;;;;;;;65.72;28.92;;;;;;;;;;5096063;28;20027;-73
2021/01/18 04:09:08;;;;;;;72.47;32.38;;;;;;;;;;5095917;28;20020;-73
2021/01/18 04:11:34;;;;;;;67.07;31.52;;;;;;;;;;5096471;28;20023;-73
2021/01/18 04:14:00;;;;;;;77.60;32.17;;;;;;;;;;5095594;28;20073;-73
2021/01/18 04:16:26;;;;;;;75.13;34.58;;;;;;;;;;5095547;28;20024;-73
2021/01/18 04:18:53;;;;;;;74.60;30.27;;;;;;;;;;5095567;28;20453;-75
2021/01/18 04:21:19;;;;;;;69.78;30.27;;;;;;;;;;5095452;28;20028;-76
2021/01/18 04:23:45;;;;;;;76.45;33.10;;;;;;;;;;5095698;28;20016;-76
2021/01/18 04:26:12;;;;;;;75.30;36.83;;;;;;;;;;5095345;28;20024;-72
2021/01/18 04:28:38;;;;;;;87.03;30.17;;;;;;;;;;5095540;28;20023;-73
2021/01/18 04:31:04;;;;;;;70.93;33.13;;;;;;;;;;5095021;28;20044;-71
2021/01/18 04:33:30;;;;;;;77.57;35.42;;;;;;;;;;5095338;28;20472;-74
2021/01/18 04:35:57;;;;;;;58.22;26.90;;;;;;;;;;5095100;28;20024;-74
2021/01/18 04:38:23;;;;;;;59.83;30.33;;;;;;;;;;5094466;28;20028;-73
2021/01/18 04:40:50;;;;;;;65.13;27.87;;;;;;;;;;5095943;28;20071;-74
2021/01/18 04:43:16;;;;;;;67.25;29.75;;;;;;;;;;5094968;28;20745;-73
2021/01/18 04:45:43;;;;;;;52.10;23.93;;;;;;;;;;5094649;28;20369;-74
2021/01/18 04:48:09;;;;;;;62.58;27.65;;;;;;;;;;5095830;28;20441;-72
2021/01/18 04:50:35;;;;;;;54.92;26.55;;;;;;;;;;5096416;28;20115;-73
2021/01/18 04:53:02;;;;;;;61.70;27.73;;;;;;;;;;5094862;28;20054;-73
2021/01/18 04:55:28;;;;;;;56.35;28.45;;;;;;;;;;5094672;28;20372;-70
2021/01/18 04:58:24;;;;;;;64.45;30.70;;;;;;;;;;5094654;28;20020;-71
2021/01/18 05:00:50;;;;;;;67.57;30.67;;;;;;;;;;5085520;28;20032;-70
2021/01/18 05:03:18;;;;;;;56.13;25.58;;;;;;;;;;5095916;28;20026;-71
2021/01/18 05:05:56;;;;;;;53.42;24.35;;;;;;;;;;5095085;28;20031;-70
2021/01/18 05:08:40;;;;;;;59.88;26.30;;;;;;;;;;5094901;28;20020;-70
2021/01/18 05:11:10;;;;;;;60.53;27.45;;;;;;;;;;5093671;28;20026;-71
2021/01/18 05:13:36;;;;;;;62.78;26.13;;;;;;;;;;5092524;28;20024;-70
2021/01/18 05:16:02;;;;;;;67.37;30.23;;;;;;;;;;5092504;28;20043;-70
2021/01/18 05:18:33;;;;;;;69.85;31.02;;;;;;;;;;5092546;28;20032;-74
2021/01/18 05:21:02;;;;;;;75.43;32.70;;;;;;;;;;5093340;28;20027;-71
2021/01/18 05:23:28;;;;;;;79.53;36.53;;;;;;;;;;5094400;28;20024;-72
2021/01/18 05:26:13;;;;;;;85.63;35.10;;;;;;;;;;5094725;28;20365;-73
2021/01/18 05:28:43;;;;;;;88.50;38.95;;;;;;;;;;5094808;28;20045;-74
2021/01/18 05:31:10;;;;;;;85.03;36.17;;;;;;;;;;5094280;28;20139;-71
2021/01/18 05:33:38;;;;;;;86.82;36.88;;;;;;;;;;5096268;28;20020;-72
2021/01/18 05:36:04;;;;;;;98.65;40.45;;;;;;;;;;5094247;28;20115;-73
2021/01/18 05:38:31;;;;;;;116.35;46.28;;;;;;;;;;5095335;28;20016;-72
2021/01/18 05:40:59;;;;;;;124.80;46.88;;;;;;;;;;5094581;28;20027;-73
2021/01/18 05:43:32;;;;;;;116.30;46.17;;;;;;;;;;5094146;28;20453;-72
2021/01/18 05:46:03;;;;;;;117.80;43.67;;;;;;;;;;5094691;28;20030;-72
2021/01/18 05:48:29;;;;;;;120.93;46.70;;;;;;;;;;5093882;28;20026;-73
2021/01/18 05:50:56;;;;;;;108.18;43.38;;;;;;;;;;5094121;28;20055;-73
2021/01/18 05:53:30;;;;;;;105.25;43.80;;;;;;;;;;5095400;28;20043;-73
2021/01/18 05:55:56;;;;;;;107.65;42.35;;;;;;;;;;5093851;28;20024;-72
2021/01/18 05:58:32;;;;;;;129.40;49.63;;;;;;;;;;5093693;28;20051;-73
2021/01/18 06:00:59;;;;;;;122.50;49.03;;;;;;;;;;5095721;28;20047;-75
2021/01/18 06:03:29;;;;;;;110.60;44.80;;;;;;;;;;5093487;28;20017;-72
2021/01/18 06:05:56;;;;;;;104.40;44.08;;;;;;;;;;5093554;28;20020;-72
2021/01/18 06:08:23;;;;;;;110.22;44.13;;;;;;;;;;5094215;28;20090;-72
2021/01/18 06:10:50;;;;;;;114.57;46.50;;;;;;;;;;5093266;28;20031;-72
2021/01/18 06:13:24;;;;;;;114.10;47.30;;;;;;;;;;5093751;28;20047;-71
2021/01/18 06:15:53;;;;;;;117.82;49.67;;;;;;;;;;5093781;28;20024;-72
2021/01/18 06:18:19;;;;;;;131.32;62.00;;;;;;;;;;5094829;28;20035;-72
2021/01/18 06:20:46;;;;;;;119.88;52.35;;;;;;;;;;5094541;28;20031;-72
2021/01/18 06:23:21;;;;;;;116.38;54.58;;;;;;;;;;5094435;28;20081;-71
2021/01/18 06:25:49;;;;;;;99.45;44.15;;;;;;;;;;5093489;28;20048;-70
2021/01/18 06:28:34;;;;;;;93.43;48.00;;;;;;;;;;5093314;28;20020;-67
2021/01/18 06:31:01;;;;;;;80.07;35.70;;;;;;;;;;5093750;28;20044;-66
2021/01/18 06:33:45;;;;;;;76.80;31.50;;;;;;;;;;5094536;28;20020;-67
2021/01/18 06:36:14;;;;;;;70.55;30.88;;;;;;;;;;5094175;28;20026;-66
2021/01/18 06:38:42;;;;;;;70.00;32.22;;;;;;;;;;5092501;28;20043;-64
2021/01/18 06:41:08;;;;;;;75.15;32.38;;;;;;;;;;5094092;28;20024;-66
2021/01/18 06:43:35;;;;;;;69.00;28.70;;;;;;;;;;5093148;28;20149;-66
2021/01/18 06:46:14;;;;;;;68.23;31.00;;;;;;;;;;5092109;28;20114;-64
2021/01/18 06:48:42;;;;;;;60.38;27.50;;;;;;;;;;5093084;28;20012;-64
2021/01/18 06:51:12;;;;;;;60.45;28.30;;;;;;;;;;5093041;28;20589;-63
2021/01/18 06:53:42;;;;;;;61.45;30.48;;;;;;;;;;5078846;28;20369;-63
2021/01/18 06:56:25;;;;;;;55.70;26.65;;;;;;;;;;5090408;28;20045;-67
2021/01/18 06:58:57;;;;;;;63.47;30.98;;;;;;;;;;5090607;28;20012;-65
2021/01/18 07:01:28;;;;;;;56.95;27.45;;;;;;;;;;5092673;28;20044;-65
2021/01/18 07:03:55;;;;;;;65.88;29.42;;;;;;;;;;5092927;28;20485;-66
2021/01/18 07:06:32;;;;;;;55.10;24.10;;;;;;;;;;5093683;28;20024;-66
2021/01/18 07:09:00;;;;;;;66.72;31.77;;;;;;;;;;5093873;28;20096;-64
2021/01/18 07:11:26;;;;;;;;;;;;;;;;;;5095313;28;20157;-65
2021/01/18 07:13:52;;;;;;;68.90;29.48;;;;;;;;;;5093898;28;19951;-67
2021/01/18 07:16:19;;;;;;;63.10;29.85;;;;;;;;;;5092404;28;20469;-72
2021/01/18 07:18:51;;;;;;;80.07;41.00;;;;;;;;;;5092626;28;20023;-70
2021/01/18 07:21:18;;;;;;;95.68;43.63;;;;;;;;;;5094140;28;20024;-71
2021/01/18 07:23:49;;;;;;;92.57;43.08;;;;;;;;;;5092599;28;20024;-71
2021/01/18 07:26:32;;;;;;;97.50;43.88;;;;;;;;;;5093057;28;20415;-69
2021/01/18 07:29:03;;;;;;;110.57;48.15;;;;;;;;;;5092571;28;20017;-69
2021/01/18 07:31:30;;;;;;;93.13;41.20;;;;;;;;;;5093929;28;20044;-70
2021/01/18 07:33:56;;;;;;;99.83;43.83;;;;;;;;;;5091994;28;20401;-71
2021/01/18 07:36:30;;;;;;;78.68;35.63;;;;;;;;;;5093038;28;20023;-73
2021/01/18 07:38:56;;;;;;;67.38;32.55;;;;;;;;;;5092477;28;20115;-70
2021/01/18 07:41:32;;;;;;;74.10;34.60;;;;;;;;;;5091928;28;20024;-68
2021/01/18 07:43:59;;;;;;;76.20;33.55;;;;;;;;;;5093795;28;20518;-68
2021/01/18 07:46:30;;;;;;;66.68;31.73;;;;;;;;;;5093812;28;20448;-68
2021/01/18 07:49:00;;;;;;;81.82;36.40;;;;;;;;;;5092033;28;20418;-66
2021/01/18 07:51:27;;;;;;;101.40;42.83;;;;;;;;;;5093460;28;20522;-67
2021/01/18 07:53:54;;;;;;;81.22;35.03;;;;;;;;;;5093511;28;20067;-71
2021/01/18 07:56:30;;;;;;;94.60;39.80;;;;;;;;;;5091850;28;20024;-69
2021/01/18 07:59:07;;;;;;;87.20;37.88;;;;;;;;;;5090950;28;20028;-69
2021/01/18 08:01:36;;;;;;;83.20;37.08;;;;;;;;;;5090549;28;20449;-69
2021/01/18 08:04:29;;;;;;;81.68;38.47;;;;;;;;;;5091572;28;20028;-67
2021/01/18 08:07:05;;;;;;;90.32;37.50;;;;;;;;;;5074330;28;20033;-66
2021/01/18 08:09:32;;;;;;;76.38;33.53;;;;;;;;;;5090932;28;20090;-66
2021/01/18 08:12:16;;;;;;;76.72;37.35;;;;;;;;;;5094090;28;20449;-69
2021/01/18 08:14:51;;;;;;;76.30;30.40;;;;;;;;;;5094684;28;20398;-69
2021/01/18 08:17:17;;;;;;;76.32;35.13;;;;;;;;;;5109417;28;20044;-66
2021/01/18 08:20:02;;;;;;;78.18;35.05;;;;;;;;;;5095977;28;20085;-66
2021/01/18 08:22:29;;;;;;;77.45;36.13;;;;;;;;;;5091608;28;20019;-65
2021/01/18 08:24:56;;;;;;;84.35;37.92;;;;;;;;;;5095424;28;20717;-65
2021/01/18 08:27:34;;;;;;;78.00;31.45;;;;;;;;;;5094862;28;20074;-65
2021/01/18 08:30:00;;;;;;;76.78;33.65;;;;;;;;;;5095013;28;20080;-65
2021/01/18 08:32:33;;;;;;;73.90;32.42;;;;;;;;;;5095595;28;20044;-66
2021/01/18 08:35:07;;;;;;;74.13;31.08;;;;;;;;;;5095408;28;20016;-66
2021/01/18 08:37:34;;;;;;;80.00;34.08;;;;;;;;;;5093524;28;20019;-66
2021/01/18 08:40:26;;;;;;;70.85;32.35;;;;;;;;;;5095034;28;20534;-65
2021/01/18 08:42:54;;;;;;;55.25;26.30;;;;;;;;;;5084218;28;20043;-66
2021/01/18 08:45:31;;;;;;;55.05;25.30;;;;;;;;;;5094843;28;20032;-65
2021/01/18 08:48:01;;;;;;;60.53;31.13;;;;;;;;;;5095135;28;20019;-65
2021/01/18 08:50:33;;;;;;;68.18;30.90;;;;;;;;;;5092217;28;20475;-67
2021/01/18 08:53:00;;;;;;;65.00;30.13;;;;;;;;;;5094772;28;20027;-65
2021/01/18 08:55:29;;;;;;;54.03;26.25;;;;;;;;;;5092112;28;20403;-65
2021/01/18 08:58:05;;;;;;;60.00;29.80;;;;;;;;;;5094792;28;20099;-65
2021/01/18 09:00:44;;;;;;;67.78;31.05;;;;;;;;;;5092783;28;20105;-66
2021/01/18 09:03:11;;;;;;;57.30;29.05;;;;;;;;;;5092072;28;20016;-66
2021/01/18 09:05:37;;;;;;;65.05;29.20;;;;;;;;;;5094222;28;20051;-64
2021/01/18 09:08:06;;;;;;;57.20;27.67;;;;;;;;;;5094775;28;20044;-66
2021/01/18 09:10:32;;;;;;;60.50;29.05;;;;;;;;;;5094639;28;20121;-66
2021/01/18 09:13:02;;;;;;;68.25;29.77;;;;;;;;;;5094535;28;20465;-65
2021/01/18 09:15:28;;;;;;;61.50;30.25;;;;;;;;;;5092449;28;20027;-65
2021/01/18 09:17:54;;;;;;;51.30;23.73;;;;;;;;;;5094619;28;20023;-64
2021/01/18 09:20:20;;;;;;;44.80;22.00;;;;;;;;;;5094577;28;20550;-65
2021/01/18 09:22:46;;;;;;;46.22;23.35;;;;;;;;;;5093278;28;20012;-66
2021/01/18 09:25:16;;;;;;;50.88;25.45;;;;;;;;;;5093359;28;20536;-66
2021/01/18 09:27:43;;;;;;;57.67;27.83;;;;;;;;;;5096697;28;20044;-65
2021/01/18 09:30:11;;;;;;;46.88;24.10;;;;;;;;;;5096506;28;20075;-66
2021/01/18 09:32:38;;;;;;;44.67;22.30;;;;;;;;;;5095540;28;20056;-67
2021/01/18 09:35:09;;;;;;;45.95;24.02;;;;;;;;;;5096363;28;20019;-67
2021/01/18 09:37:39;;;;;;;61.22;27.83;;;;;;;;;;5096015;28;20073;-65
2021/01/18 09:40:07;;;;;;;59.45;29.35;;;;;;;;;;5092541;28;20016;-66
2021/01/18 09:42:33;;;;;;;60.35;27.23;;;;;;;;;;5094088;28;20326;-68
2021/01/18 09:45:00;;;;;;;64.50;30.75;;;;;;;;;;5095125;28;20016;-67
2021/01/18 09:47:26;;;;;;;59.15;29.15;;;;;;;;;;5094179;28;20059;-68
2021/01/18 09:49:52;;;;;;;58.38;26.67;;;;;;;;;;5094904;28;20036;-65
2021/01/18 09:52:18;;;;;;;49.15;25.17;;;;;;;;;;5093672;28;20012;-66
2021/01/18 09:54:47;;;;;;;45.92;24.00;;;;;;;;;;5090921;28;20031;-66
2021/01/18 09:57:15;;;;;;;55.55;28.23;;;;;;;;;;5094087;28;20027;-66
2021/01/18 09:59:43;;;;;;;47.00;24.55;;;;;;;;;;5094231;28;20100;-66
2021/01/18 10:02:11;;;;;;;53.35;25.63;;;;;;;;;;5093169;28;20026;-66
2021/01/18 10:04:39;;;;;;;49.30;24.23;;;;;;;;;;5094739;28;20012;-67
2021/01/18 10:07:07;;;;;;;77.28;32.78;;;;;;;;;;5094718;28;20012;-68
2021/01/18 10:09:34;;;;;;;62.83;27.33;;;;;;;;;;5094909;28;20149;-68
2021/01/18 10:12:00;;;;;;;48.40;22.70;;;;;;;;;;5094649;28;20024;-68
2021/01/18 10:14:28;;;;;;;40.30;21.85;;;;;;;;;;5094612;28;20090;-66
2021/01/18 10:17:03;;;;;;;50.03;23.15;;;;;;;;;;5095141;28;20032;-66
2021/01/18 10:19:30;;;;;;;47.13;24.67;;;;;;;;;;5095124;28;20026;-68
2021/01/18 10:21:56;;;;;;;50.53;25.83;;;;;;;;;;5094491;28;20016;-69
2021/01/18 10:24:25;;;;;;;45.22;21.77;;;;;;;;;;5094767;28;20069;-67
2021/01/18 10:26:55;;;;;;;45.35;23.83;;;;;;;;;;5094699;28;20456;-67
2021/01/18 10:29:25;;;;;;;51.78;23.50;;;;;;;;;;5093996;28;20419;-67
2021/01/18 10:31:51;;;;;;;55.63;25.13;;;;;;;;;;5093310;28;20130;-67
2021/01/18 10:34:23;;;;;;;46.50;23.55;;;;;;;;;;5094299;28;20020;-67
2021/01/18 10:36:51;;;;;;;44.85;23.52;;;;;;;;;;5093077;28;20360;-68
2021/01/18 10:39:40;;;;;;;67.03;29.73;;;;;;;;;;5094527;28;20020;-67
2021/01/18 10:42:06;;;;;;;44.72;22.63;;;;;;;;;;5088517;28;20024;-68
2021/01/18 10:44:34;;;;;;;51.00;24.10;;;;;;;;;;5094143;28;20091;-67
2021/01/18 10:47:00;;;;;;;67.68;30.10;;;;;;;;;;5094361;28;20029;-68
2021/01/18 10:49:30;;;;;;;63.33;29.65;;;;;;;;;;5093923;28;20027;-66
2021/01/18 10:51:59;;;;;;;61.88;25.52;;;;;;;;;;5094003;28;20027;-67
2021/01/18 10:54:25;;;;;;;79.72;29.75;;;;;;;;;;5093956;28;20074;-67
2021/01/18 10:56:53;;;;;;;82.18;33.53;;;;;;;;;;5093724;28;20337;-67
2021/01/18 10:59:19;;;;;;;56.78;24.67;;;;;;;;;;5094507;28;20160;-66
2021/01/18 11:01:58;;;;;;;99.40;39.78;;;;;;;;;;5090900;28;20024;-66
2021/01/18 11:04:24;;;;;;;60.30;26.60;;;;;;;;;;5072165;28;20468;-67
2021/01/18 11:06:50;;;;;;;46.72;24.92;;;;;;;;;;5073433;28;20381;-67
2021/01/18 11:09:26;;;;;;;53.95;27.67;;;;;;;;;;5073663;28;20021;-69
2021/01/18 11:11:52;;;;;;;52.85;29.25;;;;;;;;;;5073421;28;20032;-66
2021/01/18 11:14:18;;;;;;;42.05;23.90;;;;;;;;;;5086764;28;20031;-66
2021/01/18 11:16:55;;;;;;;46.08;25.67;;;;;;;;;;5093114;28;20476;-67
2021/01/18 11:19:23;;;;;;;49.35;25.75;;;;;;;;;;5095067;28;20086;-66
2021/01/18 11:21:49;;;;;;;53.60;28.45;;;;;;;;;;5093478;28;20066;-65
2021/01/18 11:24:15;;;;;;;42.85;24.23;;;;;;;;;;5093375;28;20485;-66
2021/01/18 11:26:41;;;;;;;50.03;26.65;;;;;;;;;;5093677;28;20098;-67
2021/01/18 11:29:07;;;;;;;48.92;25.25;;;;;;;;;;5092592;28;20054;-69
2021/01/18 11:31:33;;;;;;;50.63;27.88;;;;;;;;;;5093763;28;20047;-64
2021/01/18 11:33:59;;;;;;;54.55;29.00;;;;;;;;;;5092839;28;20059;-68
2021/01/18 11:36:26;;;;;;;54.50;28.38;;;;;;;;;;5093032;28;20464;-69
2021/01/18 11:38:53;;;;;;;36.25;21.10;;;;;;;;;;5092687;28;20534;-68
2021/01/18 11:41:19;;;;;;;45.95;26.35;;;;;;;;;;5092492;28;20613;-68
2021/01/18 11:43:45;;;;;;;64.18;32.45;;;;;;;;;;5092193;28;20031;-67
2021/01/18 11:46:16;;;;;;;47.53;24.45;;;;;;;;;;5093354;28;20019;-67
2021/01/18 11:48:42;;;;;;;34.17;20.60;;;;;;;;;;5094652;28;20107;-71
2021/01/18 11:51:08;;;;;;;43.33;23.80;;;;;;;;;;5095992;28;20062;-70
2021/01/18 11:53:34;;;;;;;39.20;21.15;;;;;;;;;;5094661;28;20070;-70
2021/01/18 11:56:00;;;;;;;40.80;23.23;;;;;;;;;;5095772;28;20406;-69
2021/01/18 11:58:26;;;;;;;40.55;23.10;;;;;;;;;;5108866;28;20471;-67
2021/01/18 12:00:52;;;;;;;49.03;24.30;;;;;;;;;;5095195;28;20099;-66
2021/01/18 12:03:19;;;;;;;68.07;34.05;;;;;;;;;;5094295;28;20466;-66
2021/01/18 12:05:45;;;;;;;73.45;34.78;;;;;;;;;;5095284;28;20024;-68
2021/01/18 12:08:11;;;;;;;58.83;29.58;;;;;;;;;;5095571;28;20016;-67
2021/01/18 12:10:38;;;;;;;56.70;27.45;;;;;;;;;;5095104;28;20024;-67
2021/01/18 12:13:05;;;;;;;37.08;21.95;;;;;;;;;;5094180;28;20032;-69
2021/01/18 12:15:32;;;;;;;41.83;23.02;;;;;;;;;;5095382;28;20417;-67
2021/01/18 12:17:58;;;;;;;46.97;24.75;;;;;;;;;;5095667;28;20471;-70
2021/01/18 12:20:24;;;;;;;42.55;23.90;;;;;;;;;;5093738;28;20069;-67
2021/01/18 12:22:54;;;;;;;45.25;24.05;;;;;;;;;;5095499;28;20086;-69
2021/01/18 12:25:20;;;;;;;42.97;23.65;;;;;;;;;;5095585;28;20024;-67
2021/01/18 12:27:50;;;;;;;45.28;23.95;;;;;;;;;;5094821;28;20089;-67
2021/01/18 12:30:18;;;;;;;49.13;26.40;;;;;;;;;;5094900;28;20098;-67
2021/01/18 12:32:45;;;;;;;42.50;25.10;;;;;;;;;;5095220;28;20373;-66
2021/01/18 12:35:12;;;;;;;42.00;22.35;;;;;;;;;;5095157;28;20023;-69
2021/01/18 12:37:38;;;;;;;39.70;22.60;;;;;;;;;;5094180;28;20016;-66
2021/01/18 12:40:06;;;;;;;50.03;24.88;;;;;;;;;;5094635;28;20481;-68
2021/01/18 12:42:32;;;;;;;45.10;25.27;;;;;;;;;;5093353;28;20472;-69
2021/01/18 12:44:58;;;;;;;45.55;23.33;;;;;;;;;;5095208;28;20050;-67
2021/01/18 12:47:24;;;;;;;48.95;26.33;;;;;;;;;;5095106;28;20090;-69
2021/01/18 12:49:50;;;;;;;39.03;22.10;;;;;;;;;;5094288;28;20043;-66
2021/01/18 12:52:16;;;;;;;45.63;24.42;;;;;;;;;;5094766;28;20065;-68
2021/01/18 12:54:42;;;;;;;50.75;25.63;;;;;;;;;;5093674;28;20117;-69
2021/01/18 12:57:08;;;;;;;53.13;27.63;;;;;;;;;;5094256;28;20012;-70
2021/01/18 12:59:35;;;;;;;47.50;25.30;;;;;;;;;;5094597;28;20538;-67
2021/01/18 13:02:06;;;;;;;60.10;28.00;;;;;;;;;;5109740;28;20082;-69
2021/01/18 13:04:32;;;;;;;58.03;28.58;;;;;;;;;;5091408;28;20020;-70
2021/01/18 13:06:59;;;;;;;57.13;25.58;;;;;;;;;;5095073;28;20096;-70
2021/01/18 13:09:25;;;;;;;44.33;23.27;;;;;;;;;;5094498;28;20066;-70
2021/01/18 13:11:53;;;;;;;42.38;23.08;;;;;;;;;;5093331;28;20052;-69
2021/01/18 13:14:20;;;;;;;45.83;22.92;;;;;;;;;;5094418;28;20052;-72
2021/01/18 13:16:46;;;;;;;51.33;25.40;;;;;;;;;;5094305;28;20020;-69
2021/01/18 13:19:13;;;;;;;45.28;22.73;;;;;;;;;;5092210;28;20325;-68
2021/01/18 13:21:39;;;;;;;56.45;26.23;;;;;;;;;;5093786;28;20361;-68
2021/01/18 13:24:05;;;;;;;49.65;24.83;;;;;;;;;;5092300;28;20461;-70
2021/01/18 13:26:35;;;;;;;49.10;25.35;;;;;;;;;;5094810;28;20112;-69
2021/01/18 13:29:02;;;;;;;53.83;27.75;;;;;;;;;;5094271;28;20023;-69
2021/01/18 13:31:35;;;;;;;63.13;31.25;;;;;;;;;;5093681;28;20047;-70
2021/01/18 13:34:02;;;;;;;56.13;28.55;;;;;;;;;;5092664;28;20023;-70
2021/01/18 13:36:31;;;;;;;44.13;23.15;;;;;;;;;;5091599;28;20516;-71
2021/01/18 13:38:57;;;;;;;50.58;25.13;;;;;;;;;;5084092;28;20022;-69
2021/01/18 13:41:23;;;;;;;47.53;25.63;;;;;;;;;;5091795;28;20024;-68
2021/01/18 13:43:49;;;;;;;50.58;25.98;;;;;;;;;;5092491;28;20518;-68
2021/01/18 13:46:17;;;;;;;50.40;25.45;;;;;;;;;;5089033;28;20023;-69
2021/01/18 13:48:43;;;;;;;44.50;22.83;;;;;;;;;;5092156;28;20019;-68
2021/01/18 13:51:13;;;;;;;49.53;24.47;;;;;;;;;;5093538;28;20047;-68
2021/01/18 13:53:39;;;;;;;48.22;25.23;;;;;;;;;;5092749;28;20020;-67
2021/01/18 13:56:06;;;;;;;51.53;26.80;;;;;;;;;;5095345;28;20043;-69
2021/01/18 13:58:32;;;;;;;42.77;21.60;;;;;;;;;;5093247;28;20027;-73
2021/01/18 14:00:59;;;;;;;41.30;21.13;;;;;;;;;;5092230;28;20487;-68
2021/01/18 14:03:25;;;;;;;32.53;18.02;;;;;;;;;;5092779;28;20020;-73
2021/01/18 14:05:51;;;;;;;30.83;17.00;;;;;;;;;;5092285;28;20024;-72
2021/01/18 14:08:17;;;;;;;33.35;18.13;;;;;;;;;;5091246;28;20341;-66
2021/01/18 14:10:43;;;;;;;40.00;22.23;;;;;;;;;;5091731;28;20103;-65
2021/01/18 14:13:09;;;;;;;38.20;21.08;;;;;;;;;;5092771;28;20103;-66
2021/01/18 14:15:35;;;;;;;39.00;20.63;;;;;;;;;;5092599;28;20032;-67
2021/01/18 14:18:01;;;;;;;40.10;18.33;;;;;;;;;;5093901;28;20028;-67
2021/01/18 14:20:27;;;;;;;46.50;21.23;;;;;;;;;;5092137;28;20364;-67
2021/01/18 14:22:53;;;;;;;50.35;22.92;;;;;;;;;;5090109;28;20027;-67
2021/01/18 14:25:20;;;;;;;101.65;54.15;;;;;;;;;;5092427;28;20050;-63